Map

Track Data

SID SEASON NUMBER BASIN SUBBASIN NAME ISO_TIME NATURE LAT LON WMO_WIND WMO_PRES WMO_AGENCY TRACK_TYPE DIST2LAND LANDFALL IFLAG USA_AGENCY USA_ATCF_ID USA_LAT USA_LON USA_RECORD USA_STATUS USA_WIND USA_PRES USA_SSHS USA_R34_NE USA_R34_SE USA_R34_SW USA_R34_NW USA_R50_NE USA_R50_SE USA_R50_SW USA_R50_NW USA_R64_NE USA_R64_SE USA_R64_SW USA_R64_NW USA_POCI USA_ROCI USA_RMW USA_EYE TOKYO_LAT TOKYO_LON TOKYO_GRADE TOKYO_WIND TOKYO_PRES TOKYO_R50_DIR TOKYO_R50_LONG TOKYO_R50_SHORT TOKYO_R30_DIR TOKYO_R30_LONG TOKYO_R30_SHORT TOKYO_LAND CMA_LAT CMA_LON CMA_CAT CMA_WIND CMA_PRES HKO_LAT HKO_LON HKO_CAT HKO_WIND HKO_PRES NEWDELHI_LAT NEWDELHI_LON NEWDELHI_GRADE NEWDELHI_WIND NEWDELHI_PRES NEWDELHI_CI NEWDELHI_DP NEWDELHI_POCI REUNION_LAT REUNION_LON REUNION_TYPE REUNION_WIND REUNION_PRES REUNION_TNUM REUNION_CI REUNION_RMW REUNION_R34_NE REUNION_R34_SE REUNION_R34_SW REUNION_R34_NW REUNION_R50_NE REUNION_R50_SE REUNION_R50_SW REUNION_R50_NW REUNION_R64_NE REUNION_R64_SE REUNION_R64_SW REUNION_R64_NW BOM_LAT BOM_LON BOM_TYPE BOM_WIND BOM_PRES BOM_TNUM BOM_CI BOM_RMW BOM_R34_NE BOM_R34_SE BOM_R34_SW BOM_R34_NW BOM_R50_NE BOM_R50_SE BOM_R50_SW BOM_R50_NW BOM_R64_NE BOM_R64_SE BOM_R64_SW BOM_R64_NW BOM_ROCI BOM_POCI BOM_EYE BOM_POS_METHOD BOM_PRES_METHOD NADI_LAT NADI_LON NADI_CAT NADI_WIND NADI_PRES WELLINGTON_LAT WELLINGTON_LON WELLINGTON_WIND WELLINGTON_PRES DS824_LAT DS824_LON DS824_STAGE DS824_WIND DS824_PRES TD9636_LAT TD9636_LON TD9636_STAGE TD9636_WIND TD9636_PRES TD9635_LAT TD9635_LON TD9635_WIND TD9635_PRES TD9635_ROCI NEUMANN_LAT NEUMANN_LON NEUMANN_CLASS NEUMANN_WIND NEUMANN_PRES MLC_LAT MLC_LON MLC_CLASS MLC_WIND MLC_PRES USA_GUST BOM_GUST BOM_GUST_PER REUNION_GUST REUNION_GUST_PER USA_SEAHGT USA_SEARAD_NE USA_SEARAD_SE USA_SEARAD_SW USA_SEARAD_NW STORM_SPEED STORM_DIR
1939215N21112 1939 45 WP MM NOT_NAMED 1939-08-03 10:00:00 NR 21.0000 112.000 main 69 69 __________O___ -1 21.0000 112.000 2 6 87
1939215N21112 1939 45 WP MM NOT_NAMED 1939-08-03 12:00:00 NR 21.0104 112.206 main 78 78 __________P___ -1 21.0104 112.206 2 6 87
1939215N21112 1939 45 WP MM NOT_NAMED 1939-08-03 15:00:00 NR 21.0282 112.519 main 80 80 __________P___ -1 21.0282 112.519 2 6 86
1939215N21112 1939 45 WP MM NOT_NAMED 1939-08-03 18:00:00 NR 21.0520 112.842 main 80 84 __________P___ -1 21.0520 112.842 2 6 85
1939215N21112 1939 45 WP MM NOT_NAMED 1939-08-03 21:00:00 NR 21.0858 113.182 main 91 91 __________P___ -1 21.0858 113.182 2 6 84
1939215N21112 1939 45 WP MM NOT_NAMED 1939-08-03 22:00:00 NR 21.1000 113.300 main 94 94 __________O___ -1 21.1000 113.300 2 7 82
1939215N21112 1939 45 WP MM NOT_NAMED 1939-08-04 00:00:00 NR 21.1333 113.544 main 103 106 __________P___ -1 21.1333 113.544 2 7 81
1939215N21112 1939 45 WP MM NOT_NAMED 1939-08-04 03:00:00 NR 21.1959 113.922 main 118 111 __________P___ -1 21.1959 113.922 2 7 79
1939215N21112 1939 45 WP MM NOT_NAMED 1939-08-04 06:00:00 NR 21.2734 114.305 main 111 105 __________P___ -1 21.2734 114.305 2 7 76
1939215N21112 1939 45 WP MM NOT_NAMED 1939-08-04 09:00:00 NR 21.3658 114.679 main 108 108 __________P___ -1 21.3658 114.679 2 7 75
1939215N21112 1939 45 WP MM NOT_NAMED 1939-08-04 10:00:00 NR 21.4000 114.800 main 113 112 __________O___ -1 21.4000 114.800 2 7 74
1939215N21112 1939 45 WP MM NOT_NAMED 1939-08-04 12:00:00 NR 21.4667 115.049 main 112 108 __________P___ -1 21.4667 115.049 2 7 73
1939215N21112 1939 45 WP MM NOT_NAMED 1939-08-04 15:00:00 NR 21.5792 115.410 main 113 111 __________P___ -1 21.5792 115.410 2 7 70
1939215N21112 1939 45 WP MM NOT_NAMED 1939-08-04 18:00:00 NR 21.7068 115.741 main 112 100 __________P___ -1 21.7068 115.741 2 6 65
1939215N21112 1939 45 WP MM NOT_NAMED 1939-08-04 21:00:00 NR 21.8492 116.021 main 102 91 __________P___ -1 21.8492 116.021 2 6 60
1939215N21112 1939 45 WP MM NOT_NAMED 1939-08-04 22:00:00 NR 21.9000 116.100 main 94 88 __________O___ -1 21.9000 116.100 2 5 52
1939215N21112 1939 45 WP MM NOT_NAMED 1939-08-05 00:00:00 NR 21.9997 116.229 main 88 73 __________P___ -1 21.9997 116.229 2 4 44
1939215N21112 1939 45 WP MM NOT_NAMED 1939-08-05 03:00:00 NR 22.1620 116.373 main 73 63 __________P___ -1 22.1620 116.373 2 4 34
1939215N21112 1939 45 WP MM NOT_NAMED 1939-08-05 06:00:00 NR 22.3396 116.477 main 67 44 __________P___ -1 22.3396 116.477 2 4 26
1939215N21112 1939 45 WP MM NOT_NAMED 1939-08-05 09:00:00 NR 22.5324 116.568 main 45 35 __________P___ -1 22.5324 116.568 2 4 23
1939215N21112 1939 45 WP MM NOT_NAMED 1939-08-05 10:00:00 NR 22.6000 116.600 main 35 24 __________O___ -1 22.6000 116.600 2 5 26
1939215N21112 1939 45 WP MM NOT_NAMED 1939-08-05 12:00:00 NR 22.7400 116.670 main 30 20 __________P___ -1 22.7400 116.670 2 5 26
1939215N21112 1939 45 WP MM NOT_NAMED 1939-08-05 15:00:00 NR 22.9599 116.787 main 30 15 __________P___ -1 22.9599 116.787 2 5 27
1939215N21112 1939 45 WP MM NOT_NAMED 1939-08-05 18:00:00 NR 23.1884 116.917 main 15 10 __________P___ -1 23.1884 116.917 2 5 28
1939215N21112 1939 45 WP MM NOT_NAMED 1939-08-05 21:00:00 NR 23.4218 117.054 main 11 0 __________P___ -1 23.4218 117.054 2 5 28
1939215N21112 1939 45 WP MM NOT_NAMED 1939-08-05 22:00:00 NR 23.5000 117.100 main 0 __________O___ -1 23.5000 117.100 7 5 28

Digital Typhoon Data and Search

About IBTrACS Database

This database is a web-friendly format of International Best Track Archive for Climate Stewardship (IBTrACS), a global best track data archive curated by NOAA dating back to 1842.

Updated: 2021-10-21